createdAt,value
2022-11-03T00:02:07.737Z,26.90
2022-11-03T00:04:34.868Z,27.35
2022-11-03T00:07:01.664Z,31.42
2022-11-03T00:09:28.424Z,22.35
2022-11-03T00:11:55.465Z,27.10
2022-11-03T00:14:22.440Z,25.13
2022-11-03T00:16:49.658Z,24.10
2022-11-03T00:19:17.491Z,23.45
2022-11-03T00:21:45.221Z,30.93
2022-11-03T00:24:13.120Z,26.33
2022-11-03T00:26:40.295Z,22.02
2022-11-03T00:29:12.343Z,23.92
2022-11-03T00:31:41.316Z,21.00
2022-11-03T00:34:08.803Z,33.03
2022-11-03T00:36:38.592Z,23.73
2022-11-03T00:39:06.532Z,25.60
2022-11-03T00:41:33.703Z,18.83
2022-11-03T00:44:00.568Z,25.73
2022-11-03T00:46:27.924Z,24.20
2022-11-03T00:48:55.039Z,24.15
2022-11-03T00:51:24.859Z,20.23
2022-11-03T00:53:56.751Z,25.75
2022-11-03T00:56:35.400Z,19.98
2022-11-03T00:59:03.364Z,23.63
2022-11-03T01:01:47.593Z,24.13
2022-11-03T01:04:36.002Z,23.73
2022-11-03T01:07:05.859Z,20.60
2022-11-03T01:09:37.177Z,25.48
2022-11-03T01:12:09.368Z,24.73
2022-11-03T01:14:39.162Z,20.45
2022-11-03T01:17:18.309Z,22.77
2022-11-03T01:19:45.298Z,20.95
2022-11-03T01:22:13.158Z,26.17
2022-11-03T01:24:41.615Z,22.05
2022-11-03T01:27:14.044Z,25.25
2022-11-03T01:29:41.339Z,19.90
2022-11-03T01:32:08.954Z,22.48
2022-11-03T01:34:36.145Z,22.52
2022-11-03T01:37:03.650Z,25.20
2022-11-03T01:39:30.440Z,24.13
2022-11-03T01:41:57.568Z,19.65
2022-11-03T01:44:27.486Z,23.90
2022-11-03T01:47:03.058Z,22.95
2022-11-03T01:49:42.061Z,19.67
2022-11-03T01:52:36.762Z,24.58
2022-11-03T01:55:17.385Z,22.35
2022-11-03T01:58:08.310Z,23.80
2022-11-03T02:00:36.232Z,23.63
2022-11-03T02:03:04.202Z,18.42
2022-11-03T02:05:31.510Z,22.13
2022-11-03T02:08:24.460Z,18.38
2022-11-03T02:10:52.183Z,22.25
2022-11-03T02:13:22.356Z,17.85
2022-11-03T02:15:52.751Z,16.80
2022-11-03T02:18:24.719Z,18.73
2022-11-03T02:21:21.272Z,21.35
2022-11-03T02:23:59.086Z,17.83
2022-11-03T02:26:27.454Z,22.70
2022-11-03T02:28:54.641Z,18.27
2022-11-03T02:31:27.822Z,17.60
2022-11-03T02:33:57.197Z,20.38
2022-11-03T02:36:42.859Z,22.35
2022-11-03T02:39:16.564Z,17.20
2022-11-03T02:41:46.607Z,23.08
2022-11-03T02:44:18.981Z,22.15
2022-11-03T02:46:52.275Z,27.38
2022-11-03T02:49:18.994Z,18.90
2022-11-03T02:51:46.023Z,17.73
2022-11-03T02:54:29.953Z,20.92
2022-11-03T02:57:02.284Z,18.85
2022-11-03T02:59:37.817Z,22.83
2022-11-03T03:02:17.094Z,18.02
2022-11-03T03:04:49.794Z,18.23
2022-11-03T03:07:26.567Z,15.73
2022-11-03T03:10:10.932Z,18.77
2022-11-03T03:12:43.353Z,17.23
2022-11-03T03:15:10.376Z,22.73
2022-11-03T03:17:46.283Z,21.88
2022-11-03T03:20:18.856Z,24.70
2022-11-03T03:23:00.622Z,20.38
2022-11-03T03:25:30.458Z,19.13
2022-11-03T03:28:02.674Z,24.13
2022-11-03T03:30:32.346Z,21.15
2022-11-03T03:33:01.401Z,19.87
2022-11-03T03:35:30.942Z,20.40
2022-11-03T03:38:21.809Z,17.33
2022-11-03T03:40:52.733Z,20.15
2022-11-03T03:43:21.921Z,15.50
2022-11-03T03:45:52.698Z,17.42
2022-11-03T03:48:19.728Z,18.02
2022-11-03T03:50:49.691Z,16.88
2022-11-03T03:53:18.877Z,16.25
2022-11-03T03:55:51.482Z,14.80
2022-11-03T03:58:18.636Z,21.60
2022-11-03T04:00:46.154Z,16.48
2022-11-03T04:03:21.701Z,20.83
2022-11-03T04:05:49.167Z,15.75
2022-11-03T04:08:17.039Z,15.02
2022-11-03T04:11:03.633Z,12.52
2022-11-03T04:13:49.458Z,13.70
2022-11-03T04:16:35.806Z,14.68
2022-11-03T04:19:21.455Z,13.55
2022-11-03T04:22:07.002Z,18.83
2022-11-03T04:24:33.752Z,17.58
2022-11-03T04:27:24.997Z,13.05
2022-11-03T04:29:52.705Z,14.40
2022-11-03T04:32:19.779Z,15.80
2022-11-03T04:34:47.469Z,12.88
2022-11-03T04:37:16.049Z,15.57
2022-11-03T04:42:20.856Z,24.20
2022-11-03T04:44:49.246Z,13.52
2022-11-03T04:47:18.099Z,15.10
2022-11-03T04:49:47.275Z,13.82
2022-11-03T04:52:23.506Z,13.90
2022-11-03T04:54:53.630Z,16.10
2022-11-03T04:57:20.737Z,16.70
2022-11-03T04:59:50.630Z,19.45
2022-11-03T05:02:21.968Z,15.47
2022-11-03T05:04:48.953Z,18.27
2022-11-03T05:07:18.730Z,16.93
2022-11-03T05:09:45.724Z,17.93
2022-11-03T05:12:12.484Z,25.50
2022-11-03T05:14:39.526Z,21.10
2022-11-03T05:17:27.657Z,21.17
2022-11-03T05:20:03.641Z,24.27
2022-11-03T05:22:35.917Z,19.87
2022-11-03T05:25:30.765Z,19.97
2022-11-03T05:27:57.532Z,23.93
2022-11-03T05:30:24.823Z,20.60
2022-11-03T05:32:52.658Z,22.47
2022-11-03T05:35:23.053Z,18.70
2022-11-03T05:37:51.330Z,21.53
2022-11-03T05:40:26.222Z,23.23
2022-11-03T05:43:01.072Z,25.20
2022-11-03T05:45:33.648Z,22.50
2022-11-03T05:48:02.120Z,20.15
2022-11-03T05:50:33.389Z,22.75
2022-11-03T05:53:12.375Z,18.67
2022-11-03T05:58:20.005Z,16.67
2022-11-03T06:00:48.962Z,15.88
2022-11-03T06:03:30.851Z,18.95
2022-11-03T06:06:00.229Z,16.52
2022-11-03T06:08:33.979Z,19.45
2022-11-03T06:11:02.553Z,13.57
2022-11-03T06:13:36.659Z,19.50
2022-11-03T06:16:16.111Z,15.57
2022-11-03T06:18:42.853Z,12.80
2022-11-03T06:21:16.261Z,11.00
2022-11-03T06:23:43.381Z,13.20
2022-11-03T06:26:20.587Z,16.17
2022-11-03T06:28:49.254Z,14.75
2022-11-03T06:31:24.611Z,18.90
2022-11-03T06:33:52.718Z,15.75
2022-11-03T06:36:26.369Z,17.17
2022-11-03T06:38:56.736Z,18.15
2022-11-03T06:41:27.483Z,20.67
2022-11-03T06:43:54.742Z,16.75
2022-11-03T06:46:24.199Z,20.17
2022-11-03T06:51:25.823Z,20.45
2022-11-03T06:53:54.272Z,19.42
2022-11-03T06:56:36.940Z,14.65
2022-11-03T06:59:03.724Z,14.13
2022-11-03T07:01:35.388Z,10.55
2022-11-03T07:04:16.399Z,14.68
2022-11-03T07:06:45.164Z,13.63
2022-11-03T07:09:21.741Z,11.60
2022-11-03T07:11:55.222Z,11.50
2022-11-03T07:14:25.450Z,12.50
2022-11-03T07:17:04.900Z,15.90
2022-11-03T07:19:41.891Z,8.05
2022-11-03T07:22:15.096Z,11.23
2022-11-03T07:24:45.895Z,13.85
2022-11-03T07:27:12.905Z,12.70
2022-11-03T07:29:39.763Z,9.40
2022-11-03T07:32:18.938Z,11.40
2022-11-03T07:37:20.203Z,10.23
2022-11-03T07:39:47.588Z,12.07
2022-11-03T07:42:19.524Z,10.20
2022-11-03T07:44:46.616Z,13.68
2022-11-03T07:47:16.155Z,10.43
2022-11-03T07:49:42.933Z,13.65
2022-11-03T07:52:13.382Z,9.50
2022-11-03T07:54:40.430Z,13.10
2022-11-03T07:57:22.314Z,8.68
2022-11-03T07:59:58.497Z,13.02
2022-11-03T08:02:39.737Z,9.82
2022-11-03T08:05:06.995Z,9.48
2022-11-03T08:07:34.127Z,13.57
2022-11-03T08:10:00.826Z,8.90
2022-11-03T08:12:27.878Z,10.10
2022-11-03T08:14:54.648Z,8.23
2022-11-03T08:17:21.795Z,11.32
2022-11-03T08:19:48.568Z,8.82
2022-11-03T08:22:15.681Z,12.00
2022-11-03T08:24:42.404Z,8.18
2022-11-03T08:27:09.468Z,7.65
2022-11-03T08:29:36.273Z,10.95
2022-11-03T08:32:03.426Z,6.78
2022-11-03T08:34:30.140Z,9.05
2022-11-03T08:36:57.283Z,5.45
2022-11-03T08:39:24.055Z,5.57
2022-11-03T08:41:51.091Z,6.45
2022-11-03T08:44:17.813Z,5.80
2022-11-03T08:46:44.892Z,7.35
2022-11-03T08:49:11.619Z,4.90
2022-11-03T08:51:43.942Z,5.35
2022-11-03T08:54:11.288Z,4.88
2022-11-03T08:56:38.326Z,5.32
2022-11-03T08:59:05.070Z,5.20
2022-11-03T09:01:32.141Z,8.18
2022-11-03T09:03:59.046Z,3.70
2022-11-03T09:06:26.199Z,7.22
2022-11-03T09:11:40.073Z,5.68
2022-11-03T09:14:06.822Z,4.05
2022-11-03T09:16:33.653Z,4.97
2022-11-03T09:19:00.692Z,4.68
2022-11-03T09:21:27.453Z,7.03
2022-11-03T09:23:54.301Z,5.53
2022-11-03T09:26:21.841Z,4.60
2022-11-03T09:28:49.653Z,5.88
2022-11-03T09:31:17.319Z,6.38
2022-11-03T09:33:44.295Z,7.65
2022-11-03T09:36:11.549Z,6.32
2022-11-03T09:38:38.314Z,6.40
2022-11-03T09:41:13.657Z,10.48
2022-11-03T09:43:54.101Z,6.78
2022-11-03T09:46:21.240Z,110.03
2022-11-03T09:48:48.031Z,11.18
2022-11-03T09:51:20.754Z,7.25
2022-11-03T09:53:48.399Z,7.32
2022-11-03T09:56:21.574Z,7.77
2022-11-03T09:58:53.081Z,8.70
2022-11-03T10:01:22.384Z,9.82
2022-11-03T10:03:49.537Z,11.15
2022-11-03T10:06:17.678Z,11.90
2022-11-03T10:08:47.667Z,10.85
2022-11-03T10:11:15.722Z,8.48
2022-11-03T10:13:47.721Z,10.90
2022-11-03T10:16:23.320Z,11.57
2022-11-03T10:18:51.106Z,7.32
2022-11-03T10:21:23.583Z,7.57
2022-11-03T10:23:50.802Z,9.30
2022-11-03T10:26:19.741Z,6.85
2022-11-03T10:29:04.483Z,9.38
2022-11-03T10:31:32.659Z,10.48
2022-11-03T10:33:59.820Z,6.75
2022-11-03T10:36:29.906Z,12.40
2022-11-03T10:38:57.366Z,7.95
2022-11-03T10:41:29.828Z,7.68
2022-11-03T10:44:11.802Z,7.60
2022-11-03T10:46:55.830Z,7.70
2022-11-03T10:49:23.129Z,10.95
2022-11-03T10:51:52.767Z,8.05
2022-11-03T10:54:23.821Z,16.05
2022-11-03T10:56:52.418Z,10.70
2022-11-03T10:59:22.564Z,8.77
2022-11-03T11:01:49.841Z,10.07
2022-11-03T11:04:19.153Z,7.63
2022-11-03T11:06:46.877Z,9.80
2022-11-03T11:09:20.715Z,6.72
2022-11-03T11:12:15.503Z,10.63
2022-11-03T11:14:55.576Z,8.60
2022-11-03T11:17:37.651Z,6.80
2022-11-03T11:20:22.727Z,18.85
2022-11-03T11:22:50.844Z,10.05
2022-11-03T11:25:21.018Z,6.25
2022-11-03T11:27:58.246Z,10.82
2022-11-03T11:30:31.178Z,35.00
2022-11-03T11:33:13.579Z,7.75
2022-11-03T11:35:40.580Z,15.88
2022-11-03T11:38:44.955Z,24.48
2022-11-03T11:41:11.695Z,9.98
2022-11-03T11:43:38.795Z,6.82
2022-11-03T11:46:20.818Z,15.55
2022-11-03T11:48:57.068Z,6.50
2022-11-03T11:51:24.742Z,7.97
2022-11-03T11:54:09.946Z,7.20
2022-11-03T11:56:44.078Z,7.25
2022-11-03T11:59:37.640Z,6.10
2022-11-03T12:02:17.029Z,7.85
2022-11-03T12:04:47.185Z,6.22
2022-11-03T12:07:14.109Z,11.85
2022-11-03T12:09:41.894Z,6.95
2022-11-03T12:12:09.097Z,8.98
2022-11-03T12:14:39.769Z,7.20
2022-11-03T12:17:19.220Z,7.95
2022-11-03T12:19:51.102Z,11.32
2022-11-03T12:22:24.027Z,8.80
2022-11-03T12:24:57.722Z,12.60
2022-11-03T12:27:24.662Z,10.00
2022-11-03T12:29:52.211Z,15.85
2022-11-03T12:32:32.854Z,10.90
2022-11-03T12:35:06.013Z,9.70
2022-11-03T12:37:32.988Z,10.82
2022-11-03T12:39:59.830Z,8.35
2022-11-03T12:42:27.069Z,6.57
2022-11-03T12:44:53.952Z,4.40
2022-11-03T12:47:20.994Z,7.03
2022-11-03T12:49:48.872Z,12.73
2022-11-03T12:52:15.792Z,12.68
2022-11-03T12:54:42.917Z,6.72
2022-11-03T12:57:09.910Z,6.93
2022-11-03T12:59:37.143Z,6.93
2022-11-03T13:02:04.611Z,5.40
2022-11-03T13:04:31.919Z,7.07
2022-11-03T13:06:58.757Z,13.43
2022-11-03T13:09:26.132Z,10.18
2022-11-03T13:12:11.680Z,9.00
2022-11-03T13:14:38.761Z,6.18
2022-11-03T13:17:05.532Z,9.02
2022-11-03T13:19:32.647Z,10.50
2022-11-03T13:22:00.034Z,9.25
2022-11-03T13:24:27.153Z,8.70
2022-11-03T13:26:53.874Z,9.23
2022-11-03T13:29:20.919Z,8.98
2022-11-03T13:31:47.682Z,7.78
2022-11-03T13:34:14.739Z,10.40
2022-11-03T13:36:41.588Z,7.25
2022-11-03T13:39:08.610Z,10.50
2022-11-03T13:41:36.001Z,8.20
2022-11-03T13:44:02.990Z,9.20
2022-11-03T13:46:29.841Z,9.82
2022-11-03T13:51:43.591Z,11.73
2022-11-03T13:59:44.618Z,55.03
2022-11-03T14:04:59.452Z,50.67
2022-11-03T14:07:26.948Z,37.50
2022-11-03T14:09:55.867Z,41.67
2022-11-03T14:12:34.836Z,45.72
2022-11-03T14:15:07.502Z,56.95
2022-11-03T14:17:34.381Z,53.03
2022-11-03T14:20:04.456Z,51.47
2022-11-03T14:22:31.811Z,48.72
2022-11-03T14:24:59.389Z,56.15
2022-11-03T14:27:26.267Z,30.55
2022-11-03T14:29:53.474Z,20.13
2022-11-03T14:32:20.664Z,18.83
2022-11-03T14:34:48.366Z,30.20
2022-11-03T14:37:16.047Z,28.27
2022-11-03T14:39:43.378Z,45.55
2022-11-03T14:42:16.660Z,20.85
2022-11-03T14:44:45.753Z,46.53
2022-11-03T14:47:15.474Z,33.17
2022-11-03T14:49:42.209Z,45.60
2022-11-03T14:52:09.677Z,54.78
2022-11-03T14:54:36.715Z,37.22
2022-11-03T14:57:04.723Z,54.72
2022-11-03T14:59:32.037Z,84.70
2022-11-03T15:01:59.966Z,156.27
2022-11-03T15:04:27.128Z,139.10
2022-11-03T15:06:54.585Z,129.02
2022-11-03T15:09:21.537Z,165.88
2022-11-03T15:11:48.536Z,325.50
2022-11-03T15:14:15.581Z,377.38
2022-11-03T15:16:43.055Z,415.75
2022-11-03T15:19:09.849Z,433.20
2022-11-03T15:21:36.897Z,391.17
2022-11-03T15:26:50.898Z,404.65
2022-11-03T15:29:17.738Z,456.10
2022-11-03T15:31:47.835Z,686.40
2022-11-03T15:34:16.200Z,592.90
2022-11-03T15:36:43.463Z,728.85
2022-11-03T15:39:10.230Z,752.45
2022-11-03T15:41:37.287Z,587.58
2022-11-03T15:44:04.040Z,575.45
2022-11-03T15:46:31.132Z,599.53
2022-11-03T15:48:57.997Z,549.60
2022-11-03T15:51:25.421Z,407.58
2022-11-03T15:53:57.821Z,475.10
2022-11-03T15:56:27.045Z,446.50
2022-11-03T15:58:53.843Z,459.30
2022-11-03T16:01:21.578Z,416.45
2022-11-03T16:03:48.534Z,402.92
2022-11-03T16:06:16.010Z,442.53
2022-11-03T16:08:42.988Z,433.50
2022-11-03T16:11:09.784Z,402.60
2022-11-03T16:13:36.788Z,404.93
2022-11-03T16:16:03.669Z,427.17
2022-11-03T16:18:30.734Z,426.67
2022-11-03T16:20:57.463Z,435.50
2022-11-03T16:23:24.523Z,406.33
2022-11-03T16:25:51.251Z,419.27
2022-11-03T16:28:18.331Z,450.93
2022-11-03T16:30:49.720Z,423.97
2022-11-03T16:33:20.008Z,389.83
2022-11-03T16:35:46.772Z,409.47
2022-11-03T16:38:15.366Z,465.53
2022-11-03T16:40:42.770Z,384.20
2022-11-03T16:43:09.848Z,325.80
2022-11-03T16:45:38.202Z,278.73
2022-11-03T16:48:07.068Z,238.32
2022-11-03T16:50:34.558Z,209.27
2022-11-03T16:53:01.666Z,221.20
2022-11-03T16:55:28.451Z,255.20
2022-11-03T16:57:55.587Z,230.27
2022-11-03T17:00:24.157Z,250.00
2022-11-03T17:02:51.658Z,233.88
2022-11-03T17:05:20.887Z,227.07
2022-11-03T17:07:53.766Z,252.83
2022-11-03T17:10:21.723Z,234.67
2022-11-03T17:12:49.515Z,256.67
2022-11-03T17:15:17.397Z,268.40
2022-11-03T17:17:44.720Z,204.17
2022-11-03T17:20:12.341Z,280.63
2022-11-03T17:22:39.678Z,255.07
2022-11-03T17:25:09.545Z,310.03
2022-11-03T17:27:54.137Z,367.97
2022-11-03T17:30:22.119Z,338.80
2022-11-03T17:32:53.256Z,293.88
2022-11-03T17:35:25.792Z,270.17
2022-11-03T17:37:53.284Z,244.07
2022-11-03T17:40:22.996Z,254.03
2022-11-03T17:42:50.722Z,239.07
2022-11-03T17:45:20.187Z,228.73
2022-11-03T17:47:49.681Z,275.03
2022-11-03T17:52:46.578Z,208.83
2022-11-03T17:55:25.966Z,211.63
2022-11-03T17:57:54.736Z,198.33
2022-11-03T18:00:22.394Z,194.50
2022-11-03T18:02:50.721Z,201.10
2022-11-03T18:05:30.368Z,197.37
2022-11-03T18:07:59.470Z,180.07
2022-11-03T18:10:30.510Z,164.55
2022-11-03T18:13:17.228Z,159.70
2022-11-03T18:15:52.714Z,157.47
2022-11-03T18:18:22.292Z,180.93
2022-11-03T18:23:26.736Z,162.63
2022-11-03T18:25:53.832Z,151.37
2022-11-03T18:28:21.268Z,160.47
2022-11-03T18:30:51.284Z,164.37
2022-11-03T18:33:32.951Z,145.73
2022-11-03T18:36:02.851Z,148.43
2022-11-03T18:38:30.365Z,147.67
2022-11-03T18:40:57.181Z,138.80
2022-11-03T18:43:25.518Z,138.33
2022-11-03T18:45:52.979Z,138.90
2022-11-03T18:48:20.281Z,154.83
2022-11-03T18:50:49.909Z,136.43
2022-11-03T18:53:18.663Z,137.90
2022-11-03T18:55:45.594Z,139.10
2022-11-03T18:58:23.672Z,152.83
2022-11-03T19:00:53.716Z,160.50
2022-11-03T19:03:23.224Z,155.83
2022-11-03T19:08:27.149Z,155.70
2022-11-03T19:10:55.742Z,141.73
2022-11-03T19:13:29.842Z,135.50
2022-11-03T19:15:58.589Z,126.40
2022-11-03T19:18:27.479Z,141.50
2022-11-03T19:20:54.365Z,125.88
2022-11-03T19:23:21.409Z,146.33
2022-11-03T19:25:49.972Z,124.13
2022-11-03T19:28:20.630Z,124.35
2022-11-03T19:30:48.028Z,118.57
2022-11-03T19:35:48.933Z,118.07
2022-11-03T19:38:18.033Z,115.83
2022-11-03T19:41:04.941Z,117.28
2022-11-03T19:43:34.806Z,121.57
2022-11-03T19:46:02.526Z,107.80
2022-11-03T19:48:33.298Z,123.23
2022-11-03T19:51:00.233Z,120.13
2022-11-03T19:53:29.805Z,133.63
2022-11-03T19:55:57.159Z,122.40
2022-11-03T19:58:26.522Z,118.93
2022-11-03T20:00:54.171Z,132.10
2022-11-03T20:03:22.361Z,135.93
2022-11-03T20:05:53.571Z,132.03
2022-11-03T20:08:23.446Z,135.70
2022-11-03T20:10:50.478Z,122.97
2022-11-03T20:13:23.381Z,117.63
2022-11-03T20:15:57.258Z,115.23
2022-11-03T20:18:27.600Z,135.23
2022-11-03T20:20:54.379Z,130.17
2022-11-03T20:23:29.785Z,128.70
2022-11-03T20:25:56.913Z,121.00
2022-11-03T20:28:27.641Z,119.67
2022-11-03T20:30:55.762Z,134.60
2022-11-03T20:33:24.463Z,153.43
2022-11-03T20:35:53.395Z,142.00
2022-11-03T20:38:21.303Z,145.73
2022-11-03T20:40:51.399Z,137.43
2022-11-03T20:43:28.293Z,142.37
2022-11-03T20:45:55.731Z,122.47
2022-11-03T20:48:23.642Z,136.13
2022-11-03T20:50:51.498Z,128.57
2022-11-03T20:53:21.325Z,117.30
2022-11-03T20:55:48.887Z,130.23
2022-11-03T20:58:17.923Z,111.47
2022-11-03T21:00:47.479Z,112.47
2022-11-03T21:03:44.960Z,132.77
2022-11-03T21:06:08.817Z,119.20
2022-11-03T21:08:35.558Z,144.83
2022-11-03T21:11:23.310Z,123.53
2022-11-03T21:14:22.053Z,109.60
2022-11-03T21:19:53.773Z,116.23
2022-11-03T21:22:51.424Z,109.77
2022-11-03T21:25:17.726Z,107.10
2022-11-03T21:27:45.287Z,106.53
2022-11-03T21:30:14.173Z,124.00
